Time;durP1;ratioP1;P1;durP2;ratioP2;P2;SDS_P1;SDS_P2;PMS_P1;PMS_P2;Temp;Humidity;BMP_temperature;BMP_pressure;BME280_temperature;BME280_humidity;BME280_pressure;Samples;Min_cycle;Max_cycle;Signal;HPM_P1;HPM_P2
2022/11/20 00:00:44;;;;;;;10.93;6.03;;;-1.60;99.90;;;;;;4990564;28;20524;-84
2022/11/20 00:03:17;;;;;;;9.50;5.75;;;-1.60;99.90;;;;;;4989203;28;20042;-86
2022/11/20 00:05:45;;;;;;;8.32;5.03;;;-1.50;99.90;;;;;;4991754;28;20100;-85
2022/11/20 00:08:20;;;;;;;10.63;6.38;;;-1.60;99.90;;;;;;4973711;28;20091;-84
2022/11/20 00:10:48;;;;;;;12.45;6.78;;;-1.60;99.90;;;;;;4991546;28;20466;-84
2022/11/20 00:13:14;;;;;;;10.60;6.05;;;-1.70;99.90;;;;;;5009597;28;20473;-86
2022/11/20 00:15:42;;;;;;;10.77;5.97;;;-1.70;99.90;;;;;;5009340;28;20041;-85
2022/11/20 00:18:10;;;;;;;12.07;6.05;;;-1.70;99.90;;;;;;4988272;28;20037;-87
2022/11/20 00:20:36;;;;;;;9.90;6.40;;;-1.70;99.90;;;;;;4994843;28;20052;-85
2022/11/20 00:23:03;;;;;;;12.15;7.10;;;-1.80;99.90;;;;;;4991650;28;20030;-86
2022/11/20 00:25:31;;;;;;;10.82;6.88;;;-1.70;99.90;;;;;;4991738;28;20084;-85
2022/11/20 00:27:57;;;;;;;11.35;6.05;;;-1.80;99.90;;;;;;5009911;28;20067;-84
2022/11/20 00:30:23;;;;;;;10.70;6.45;;;-1.80;99.90;;;;;;4994215;28;20034;-83
2022/11/20 00:32:49;;;;;;;11.93;6.97;;;-1.70;99.90;;;;;;4985980;28;20045;-85
2022/11/20 00:35:24;;;;;;;10.95;6.30;;;-1.80;99.90;;;;;;4988702;28;20057;-84
2022/11/20 00:37:50;;;;;;;11.35;6.22;;;-1.80;99.90;;;;;;5008084;28;20034;-84
2022/11/20 00:40:16;;;;;;;9.73;5.95;;;-1.80;99.90;;;;;;4986582;28;20290;-83
2022/11/20 00:42:41;;;;;;;9.63;6.05;;;-1.80;99.90;;;;;;4988587;28;20113;-83
2022/11/20 00:45:07;;;;;;;11.20;6.60;;;-1.80;99.90;;;;;;4955205;28;20241;-91
2022/11/20 00:47:33;;;;;;;13.32;6.32;;;-1.80;99.90;;;;;;4913486;28;20378;-90
2022/11/20 00:50:01;;;;;;;10.15;5.97;;;-1.80;99.90;;;;;;4985045;28;20087;-85
2022/11/20 00:52:26;;;;;;;9.25;5.95;;;-1.80;99.90;;;;;;5009261;28;20092;-83
2022/11/20 00:54:52;;;;;;;10.25;5.90;;;-1.90;99.90;;;;;;5009657;28;20494;-83
2022/11/20 00:57:27;;;;;;;8.50;5.57;;;-1.90;99.90;;;;;;5006248;28;20490;-86
2022/11/20 00:59:52;;;;;;;9.13;5.55;;;-1.80;99.90;;;;;;4993550;28;20530;-84
2022/11/20 01:02:18;;;;;;;11.25;7.15;;;-1.90;99.90;;;;;;5007628;28;20042;-83
2022/11/20 01:04:44;;;;;;;13.60;7.57;;;-1.80;99.90;;;;;;4990965;28;20042;-84
2022/11/20 01:07:09;;;;;;;11.50;7.00;;;-1.90;99.90;;;;;;5010954;28;20494;-83
2022/11/20 01:09:35;;;;;;;11.15;7.35;;;-1.90;99.90;;;;;;5015211;28;20022;-86
2022/11/20 01:12:01;;;;;;;13.27;7.43;;;-1.90;99.90;;;;;;4997311;28;20085;-83
2022/11/20 01:14:29;;;;;;;11.05;6.55;;;-1.90;99.90;;;;;;4997962;28;20120;-84
2022/11/20 01:16:54;;;;;;;10.25;6.25;;;-1.90;99.90;;;;;;4997206;28;20135;-84
2022/11/20 01:19:22;;;;;;;12.02;6.45;;;-2.00;99.90;;;;;;4996069;28;20081;-84
2022/11/20 01:21:51;;;;;;;11.65;5.82;;;-2.00;99.90;;;;;;4992520;28;20046;-84
2022/11/20 01:24:19;;;;;;;11.10;6.57;;;-2.00;99.90;;;;;;4989884;28;20034;-83
2022/11/20 01:26:47;;;;;;;12.20;7.10;;;-2.00;99.90;;;;;;5010317;28;20034;-82
2022/11/20 01:29:18;;;;;;;10.48;6.00;;;-2.00;99.90;;;;;;5011246;28;20040;-83
2022/11/20 01:31:44;;;;;;;9.82;6.00;;;-2.00;99.90;;;;;;4992688;28;20718;-83
2022/11/20 01:34:14;;;;;;;12.10;7.13;;;-2.00;99.90;;;;;;4986876;28;20057;-84
2022/11/20 01:36:42;;;;;;;11.23;6.60;;;-2.00;99.90;;;;;;5003077;28;20037;-83
2022/11/20 01:39:13;;;;;;;10.55;6.22;;;-2.10;99.90;;;;;;4997664;28;20122;-83
2022/11/20 01:44:59;;;;;;;11.88;6.45;;;-2.00;99.90;;;;;;5009366;28;20124;-83
2022/11/20 01:47:43;;;;;;;10.80;6.55;;;-2.00;99.90;;;;;;4989199;28;20026;-83
2022/11/20 01:50:18;;;;;;;10.63;6.32;;;-2.00;99.90;;;;;;4992891;28;20038;-83
2022/11/20 01:52:56;;;;;;;10.02;5.85;;;-2.00;99.90;;;;;;4995987;28;20084;-83
2022/11/20 01:55:28;;;;;;;11.32;5.60;;;-2.10;99.90;;;;;;5004824;28;20034;-83
2022/11/20 01:57:55;;;;;;;9.48;5.35;;;-2.00;99.90;;;;;;4994442;28;20027;-83
2022/11/20 02:00:21;;;;;;;8.38;5.15;;;-2.00;99.90;;;;;;4997037;28;20049;-83
2022/11/20 02:03:04;;;;;;;9.13;5.50;;;-2.00;99.90;;;;;;4993151;28;20482;-83
2022/11/20 02:05:41;;;;;;;8.95;5.15;;;-2.00;99.90;;;;;;4997009;28;20042;-82
2022/11/20 02:08:07;;;;;;;9.07;5.70;;;-2.00;99.90;;;;;;5014571;28;20033;-83
2022/11/20 02:10:33;;;;;;;8.77;5.47;;;-2.00;99.90;;;;;;4997350;28;20037;-83
2022/11/20 02:15:43;;;;;;;11.40;6.13;;;-2.00;99.90;;;;;;5014949;28;20049;-81
2022/11/20 02:18:11;;;;;;;11.65;6.47;;;-2.10;99.90;;;;;;4997508;28;20037;-81
2022/11/20 02:20:38;;;;;;;11.07;6.70;;;-2.10;99.90;;;;;;5013834;28;20050;-83
2022/11/20 02:23:20;;;;;;;10.23;6.82;;;-2.10;99.90;;;;;;4996977;28;20530;-83
2022/11/20 02:25:47;;;;;;;10.30;6.05;;;-2.10;99.90;;;;;;4995084;28;20026;-83
2022/11/20 02:28:13;;;;;;;11.30;7.15;;;-2.10;99.90;;;;;;4996533;28;20038;-82
2022/11/20 02:30:38;;;;;;;10.45;5.80;;;-2.10;99.90;;;;;;4995544;28;20116;-84
2022/11/20 02:33:07;;;;;;;10.07;6.07;;;-2.20;99.90;;;;;;4996312;28;20473;-84
2022/11/20 02:35:40;;;;;;;10.00;6.10;;;-2.20;99.90;;;;;;4996734;28;20045;-82
2022/11/20 02:38:11;;;;;;;11.10;7.07;;;-2.20;99.90;;;;;;4995719;28;20173;-83
2022/11/20 02:40:40;;;;;;;11.48;6.72;;;-2.20;99.90;;;;;;4995745;28;20124;-82
2022/11/20 02:43:06;;;;;;;12.85;6.43;;;-2.20;99.90;;;;;;4983533;28;20094;-82
2022/11/20 02:45:31;;;;;;;9.77;6.45;;;-2.20;99.90;;;;;;4996742;28;20500;-82
2022/11/20 02:47:57;;;;;;;9.68;6.45;;;-2.20;99.90;;;;;;4996098;28;20120;-83
2022/11/20 02:50:23;;;;;;;11.10;6.85;;;-2.20;99.90;;;;;;4995710;28;20029;-83
2022/11/20 02:52:48;;;;;;;10.50;6.53;;;-2.20;99.90;;;;;;4996093;28;20038;-82
2022/11/20 02:55:14;;;;;;;10.20;6.18;;;-2.20;99.90;;;;;;4996016;28;20057;-82
2022/11/20 02:57:40;;;;;;;10.50;6.72;;;-2.30;99.90;;;;;;4996311;28;20030;-82
2022/11/20 03:00:06;;;;;;;9.00;5.43;;;-2.30;99.90;;;;;;4995881;28;20053;-82
2022/11/20 03:02:33;;;;;;;9.98;5.70;;;-2.30;99.90;;;;;;4996135;28;20065;-81
2022/11/20 03:04:59;;;;;;;10.48;6.10;;;-2.30;99.90;;;;;;4995709;28;20454;-81
2022/11/20 03:07:24;;;;;;;10.07;6.53;;;-2.30;99.90;;;;;;5014091;28;20110;-81
2022/11/20 03:09:50;;;;;;;10.05;5.40;;;-2.30;99.90;;;;;;4995984;28;20109;-82
2022/11/20 03:12:16;;;;;;;10.65;5.40;;;-2.40;99.90;;;;;;4996071;28;20442;-81
2022/11/20 03:14:41;;;;;;;10.25;5.80;;;-2.30;99.90;;;;;;5013826;28;20026;-83
2022/11/20 03:17:07;;;;;;;12.30;5.70;;;-2.30;99.90;;;;;;5013694;28;20454;-81
2022/11/20 03:19:34;;;;;;;8.85;5.50;;;-2.30;99.90;;;;;;4995488;28;20037;-82
2022/11/20 03:22:00;;;;;;;9.77;6.18;;;-2.40;99.90;;;;;;4995385;28;20033;-82
2022/11/20 03:24:25;;;;;;;9.50;5.45;;;-2.40;99.90;;;;;;4985305;28;20359;-83
2022/11/20 03:26:51;;;;;;;9.50;5.63;;;-2.40;99.90;;;;;;4993459;28;20030;-82
2022/11/20 03:29:17;;;;;;;9.73;5.43;;;-2.40;99.90;;;;;;5013152;28;20077;-81
2022/11/20 03:31:42;;;;;;;7.55;4.65;;;-2.40;99.90;;;;;;4995728;28;20044;-83
2022/11/20 03:34:10;;;;;;;7.82;4.95;;;-2.40;99.90;;;;;;5013400;28;20566;-82
2022/11/20 03:36:39;;;;;;;7.88;4.57;;;-2.40;99.90;;;;;;4993817;28;20030;-81
2022/11/20 03:39:04;;;;;;;6.75;4.20;;;-2.40;99.90;;;;;;4995759;28;20034;-83
2022/11/20 03:41:35;;;;;;;8.75;5.32;;;-2.40;99.90;;;;;;4987484;28;20042;-81
2022/11/20 03:44:02;;;;;;;9.75;5.63;;;-2.40;99.90;;;;;;5001564;28;20033;-81
2022/11/20 03:46:29;;;;;;;10.90;6.43;;;-2.40;99.90;;;;;;4995536;28;20029;-80
2022/11/20 03:48:55;;;;;;;10.60;6.03;;;-2.40;99.90;;;;;;4997781;28;20029;-82
2022/11/20 03:51:25;;;;;;;9.85;5.88;;;-2.50;99.90;;;;;;5006953;28;20033;-81
2022/11/20 03:53:53;;;;;;;10.02;6.38;;;-2.50;99.90;;;;;;4989924;28;20046;-81
2022/11/20 03:56:25;;;;;;;10.00;5.72;;;-2.50;99.90;;;;;;4995171;28;20161;-81
2022/11/20 03:58:51;;;;;;;10.18;5.88;;;-2.50;99.90;;;;;;4995104;28;20052;-82
2022/11/20 04:01:29;;;;;;;9.80;5.82;;;-2.50;99.90;;;;;;4994101;28;20041;-81
2022/11/20 04:03:56;;;;;;;8.90;5.38;;;-2.50;99.90;;;;;;4994802;28;20044;-82
2022/11/20 04:06:27;;;;;;;8.50;4.95;;;-2.50;99.90;;;;;;4988120;28;20038;-80
2022/11/20 04:09:02;;;;;;;9.13;5.22;;;-2.50;99.90;;;;;;5007942;28;20062;-80
2022/11/20 04:11:31;;;;;;;9.27;5.00;;;-2.50;99.90;;;;;;5012523;28;20041;-81
2022/11/20 04:14:02;;;;;;;11.32;5.30;;;-2.50;99.90;;;;;;5012044;28;20029;-81
2022/11/20 04:16:33;;;;;;;9.75;5.70;;;-2.50;99.90;;;;;;5001687;28;20495;-81
2022/11/20 04:19:04;;;;;;;11.73;6.60;;;-2.50;99.90;;;;;;4992907;28;20032;-81
2022/11/20 04:21:30;;;;;;;9.77;5.80;;;-2.50;99.90;;;;;;5012862;28;20034;-82
2022/11/20 04:23:57;;;;;;;7.55;5.00;;;-2.50;99.90;;;;;;4968771;28;20076;-82
2022/11/20 04:26:24;;;;;;;9.20;5.45;;;-2.60;99.90;;;;;;4994820;28;20121;-83
2022/11/20 04:28:51;;;;;;;10.55;5.78;;;-2.50;99.90;;;;;;4994920;28;20034;-83
2022/11/20 04:31:19;;;;;;;11.88;6.75;;;-2.60;99.90;;;;;;4994944;28;20094;-81
2022/11/20 04:33:45;;;;;;;10.98;6.68;;;-2.60;99.90;;;;;;5013098;28;20068;-81
2022/11/20 04:36:16;;;;;;;10.15;6.10;;;-2.60;99.90;;;;;;4995165;28;20066;-81
2022/11/20 04:38:42;;;;;;;9.93;5.82;;;-2.60;99.90;;;;;;4995178;28;20037;-82
2022/11/20 04:41:17;;;;;;;11.68;6.60;;;-2.60;99.90;;;;;;4988417;28;20034;-81
2022/11/20 04:43:48;;;;;;;10.80;6.05;;;-2.70;99.90;;;;;;4989501;28;20038;-82
2022/11/20 04:46:14;;;;;;;10.88;6.40;;;-2.70;99.90;;;;;;5012400;28;20037;-82
2022/11/20 04:48:40;;;;;;;10.68;6.32;;;-2.70;99.90;;;;;;4994943;28;20042;-82
2022/11/20 04:51:05;;;;;;;11.55;6.30;;;-2.70;99.90;;;;;;4986711;28;20491;-82
2022/11/20 04:53:31;;;;;;;11.45;6.55;;;-2.70;99.90;;;;;;5007783;28;20041;-82
2022/11/20 04:56:01;;;;;;;10.73;6.15;;;-2.80;99.90;;;;;;4994741;28;20390;-83
2022/11/20 04:58:27;;;;;;;10.77;6.10;;;-2.80;99.90;;;;;;4982462;28;20049;-81
2022/11/20 05:00:53;;;;;;;9.68;5.30;;;-2.80;99.90;;;;;;5012345;28;20034;-81
2022/11/20 05:03:19;;;;;;;10.15;5.72;;;-2.80;99.90;;;;;;4994733;28;20171;-81
2022/11/20 05:05:44;;;;;;;10.02;6.15;;;-2.80;99.90;;;;;;4997814;28;20391;-81
2022/11/20 05:08:10;;;;;;;9.35;5.75;;;-2.80;99.90;;;;;;4997728;28;20521;-82
2022/11/20 05:10:35;;;;;;;10.70;5.60;;;-2.80;99.90;;;;;;4990835;28;20073;-82
2022/11/20 05:13:01;;;;;;;9.77;5.40;;;-2.80;99.90;;;;;;5010912;28;20397;-82
2022/11/20 05:15:27;;;;;;;9.55;5.50;;;-2.70;99.90;;;;;;5015803;28;20493;-82
2022/11/20 05:17:53;;;;;;;8.63;5.15;;;-2.80;99.90;;;;;;4997165;28;20030;-82
2022/11/20 05:20:19;;;;;;;9.68;5.43;;;-2.80;99.90;;;;;;5015548;28;20046;-81
2022/11/20 05:22:45;;;;;;;9.45;5.70;;;-2.80;99.90;;;;;;4997905;28;20379;-82
2022/11/20 05:25:11;;;;;;;10.57;5.22;;;-2.80;99.90;;;;;;5015769;28;20045;-81
2022/11/20 05:27:37;;;;;;;10.45;6.88;;;-2.80;99.90;;;;;;4980423;28;20482;-82
2022/11/20 05:30:04;;;;;;;9.93;6.30;;;-2.80;99.90;;;;;;4998407;28;20018;-81
2022/11/20 05:32:30;;;;;;;9.65;5.95;;;-2.80;99.90;;;;;;4997400;28;20128;-81
2022/11/20 05:34:56;;;;;;;9.35;5.75;;;-2.90;99.90;;;;;;4998242;28;20112;-81
2022/11/20 05:37:21;;;;;;;9.80;6.10;;;-2.90;99.90;;;;;;4998295;28;20054;-82
2022/11/20 05:39:47;;;;;;;11.07;6.45;;;-2.90;99.90;;;;;;5015302;28;20052;-81
2022/11/20 05:42:31;;;;;;;12.63;7.78;;;-2.90;99.90;;;;;;4997821;28;20447;-81
2022/11/20 05:45:01;;;;;;;12.52;7.63;;;-2.90;99.90;;;;;;4998127;28;20033;-81
2022/11/20 05:47:30;;;;;;;13.30;7.32;;;-2.90;99.90;;;;;;4997689;28;20034;-81
2022/11/20 05:49:56;;;;;;;12.57;7.53;;;-3.00;99.90;;;;;;4997614;28;20068;-81
2022/11/20 05:52:21;;;;;;;13.63;7.10;;;-3.00;99.90;;;;;;5011132;28;20057;-81
2022/11/20 05:54:47;;;;;;;11.18;6.80;;;-2.90;99.90;;;;;;4990310;28;20034;-81
2022/11/20 05:57:13;;;;;;;12.68;7.18;;;-3.00;99.90;;;;;;4993564;28;20026;-81
2022/11/20 05:59:38;;;;;;;12.38;7.03;;;-3.00;99.90;;;;;;4977837;28;20042;-81
2022/11/20 06:02:04;;;;;;;11.57;6.50;;;-2.90;99.90;;;;;;5013217;28;20042;-81
2022/11/20 06:04:30;;;;;;;9.82;6.28;;;-3.00;99.90;;;;;;5026205;28;20030;-81
2022/11/20 06:06:55;;;;;;;9.93;6.22;;;-3.00;99.90;;;;;;5016018;28;20113;-81
2022/11/20 06:09:21;;;;;;;9.07;5.82;;;-3.00;99.90;;;;;;4997552;28;20038;-81
2022/11/20 06:11:47;;;;;;;10.23;6.05;;;-3.00;99.90;;;;;;5001347;28;20371;-81
2022/11/20 06:14:12;;;;;;;13.27;6.85;;;-2.90;99.90;;;;;;5003639;28;20034;-81
2022/11/20 06:16:38;;;;;;;11.27;6.95;;;-3.00;99.90;;;;;;5011557;28;20512;-80
2022/11/20 06:19:04;;;;;;;9.38;5.53;;;-3.00;99.90;;;;;;4986175;28;20026;-81
2022/11/20 06:21:29;;;;;;;10.95;6.53;;;-3.00;99.90;;;;;;4994779;28;20033;-81
2022/11/20 06:23:55;;;;;;;12.35;7.13;;;-2.90;99.90;;;;;;4997301;28;20045;-80
2022/11/20 06:26:23;;;;;;;12.88;7.05;;;-2.90;99.90;;;;;;5014862;28;20030;-79
2022/11/20 06:28:49;;;;;;;11.48;6.82;;;-2.90;99.90;;;;;;4997021;28;20034;-79
2022/11/20 06:31:17;;;;;;;11.20;6.05;;;-2.90;99.90;;;;;;4996262;28;20037;-79
2022/11/20 06:33:47;;;;;;;11.18;6.35;;;-2.90;99.90;;;;;;4985619;28;20098;-79
2022/11/20 06:36:16;;;;;;;9.70;5.97;;;-3.00;99.90;;;;;;4983220;28;20034;-79
2022/11/20 06:38:42;;;;;;;10.30;5.65;;;-3.00;99.90;;;;;;4984252;28;20153;-79
2022/11/20 06:41:20;;;;;;;9.85;5.75;;;-3.00;99.90;;;;;;4996093;28;20050;-79
2022/11/20 06:43:46;;;;;;;10.50;5.90;;;-3.00;99.90;;;;;;4996226;28;20128;-80
2022/11/20 06:46:13;;;;;;;11.25;6.72;;;-3.00;99.90;;;;;;4996626;28;20128;-80
2022/11/20 06:48:39;;;;;;;12.35;6.68;;;-3.00;99.90;;;;;;4996338;28;20030;-80
2022/11/20 06:51:07;;;;;;;11.10;6.43;;;-3.00;99.90;;;;;;5013762;28;20129;-81
2022/11/20 06:53:33;;;;;;;10.10;5.60;;;-3.00;99.90;;;;;;4996328;28;20117;-79
2022/11/20 06:55:59;;;;;;;10.95;6.47;;;-3.00;99.90;;;;;;4987500;28;20034;-79
2022/11/20 06:58:31;;;;;;;10.93;6.55;;;-3.00;99.90;;;;;;4992026;28;20033;-79
2022/11/20 07:01:07;;;;;;;10.32;6.07;;;-2.90;99.90;;;;;;4976925;28;20157;-78
2022/11/20 07:03:33;;;;;;;12.68;7.10;;;-2.90;99.90;;;;;;4976738;28;20038;-79
2022/11/20 07:06:01;;;;;;;10.45;6.18;;;-2.90;99.90;;;;;;4994416;28;20441;-78
2022/11/20 07:08:28;;;;;;;11.07;6.60;;;-2.90;99.90;;;;;;4976615;28;20392;-80
2022/11/20 07:10:59;;;;;;;11.40;6.43;;;-2.90;99.90;;;;;;4976754;28;20045;-79
2022/11/20 07:13:26;;;;;;;10.05;5.93;;;-2.90;99.90;;;;;;4993948;28;20039;-79
2022/11/20 07:15:51;;;;;;;10.07;5.95;;;-2.90;99.90;;;;;;4993643;28;20031;-78
2022/11/20 07:18:17;;;;;;;10.40;6.28;;;-2.90;99.90;;;;;;4976647;28;20162;-79
2022/11/20 07:20:43;;;;;;;11.25;6.60;;;-2.80;99.90;;;;;;4976371;28;20085;-79
2022/11/20 07:23:09;;;;;;;12.45;6.47;;;-2.80;99.90;;;;;;4958642;28;20042;-79
2022/11/20 07:25:38;;;;;;;11.73;6.95;;;-2.80;99.90;;;;;;4972706;28;20043;-80
2022/11/20 07:28:04;;;;;;;12.88;7.80;;;-2.70;99.90;;;;;;4975218;28;20573;-78
2022/11/20 07:30:31;;;;;;;13.23;7.55;;;-2.60;99.90;;;;;;4976275;28;20117;-79
2022/11/20 07:32:57;;;;;;;12.98;7.60;;;-2.60;99.90;;;;;;4976214;28;20486;-80
2022/11/20 07:35:24;;;;;;;13.85;8.25;;;-2.60;99.90;;;;;;4976144;28;20041;-79
2022/11/20 07:37:50;;;;;;;12.43;7.90;;;-2.60;99.90;;;;;;4981003;28;20030;-78
2022/11/20 07:40:25;;;;;;;14.27;9.02;;;-2.50;99.90;;;;;;4976381;28;20030;-79
2022/11/20 07:42:55;;;;;;;13.32;8.02;;;-2.50;99.90;;;;;;4963162;28;20619;-79
2022/11/20 07:45:24;;;;;;;13.18;7.78;;;-2.40;99.90;;;;;;4975135;28;20125;-80
2022/11/20 07:47:51;;;;;;;12.82;7.93;;;-2.40;99.90;;;;;;4976199;28;20030;-80
2022/11/20 07:50:18;;;;;;;12.80;7.85;;;-2.40;99.90;;;;;;4975419;28;20602;-80
2022/11/20 07:52:45;;;;;;;13.85;8.20;;;-2.30;99.90;;;;;;4975298;28;20041;-80
2022/11/20 07:55:12;;;;;;;12.93;8.13;;;-2.20;99.90;;;;;;4975724;28;20053;-80
2022/11/20 07:57:38;;;;;;;11.77;6.93;;;-2.20;99.90;;;;;;4975841;28;20435;-82
2022/11/20 08:00:13;;;;;;;11.45;7.35;;;-2.00;99.90;;;;;;4989046;28;20601;-80
2022/11/20 08:02:40;;;;;;;12.77;7.80;;;-1.90;99.90;;;;;;4995466;28;20124;-81
2022/11/20 08:05:08;;;;;;;12.45;7.72;;;-1.80;99.90;;;;;;5012605;28;20038;-80
2022/11/20 08:07:39;;;;;;;11.30;7.32;;;-1.70;99.90;;;;;;5012929;28;20034;-81
2022/11/20 08:10:11;;;;;;;11.27;7.10;;;-1.60;99.90;;;;;;4992149;28;20482;-80
2022/11/20 08:15:58;;;;;;;12.25;8.05;;;-1.30;99.90;;;;;;4982743;28;20041;-80
2022/11/20 08:18:32;;;;;;;14.35;9.07;;;-1.20;99.90;;;;;;5011344;28;20041;-80
2022/11/20 08:21:05;;;;;;;11.98;7.45;;;-1.10;99.90;;;;;;4982754;28;20466;-81
2022/11/20 08:23:37;;;;;;;11.63;7.40;;;-1.10;99.90;;;;;;4994642;28;20046;-81
2022/11/20 08:26:13;;;;;;;14.48;8.75;;;-1.00;99.90;;;;;;5005592;28;20327;-81
2022/11/20 08:28:54;;;;;;;14.52;9.02;;;-0.90;99.90;;;;;;4993508;28;20096;-81
2022/11/20 08:31:31;;;;;;;13.50;8.90;;;-0.90;99.90;;;;;;4994000;28;20054;-80
2022/11/20 08:34:00;;;;;;;15.20;8.55;;;-0.80;99.90;;;;;;4994284;28;20080;-80
2022/11/20 08:36:34;;;;;;;12.23;8.68;;;-0.70;99.90;;;;;;4994091;28;20033;-81
2022/11/20 08:39:03;;;;;;;13.93;8.82;;;-0.70;99.90;;;;;;5011905;28;20474;-80
2022/11/20 08:41:32;;;;;;;12.45;7.55;;;-0.60;99.90;;;;;;5009061;28;20038;-82
2022/11/20 08:44:08;;;;;;;14.75;8.70;;;-0.50;99.90;;;;;;4998097;28;20084;-81
2022/11/20 08:46:46;;;;;;;12.23;7.65;;;-0.30;99.90;;;;;;4997758;28;20030;-81
2022/11/20 08:49:14;;;;;;;16.15;10.13;;;0.50;99.90;;;;;;4988398;28;20048;-82
2022/11/20 08:51:43;;;;;;;16.27;10.95;;;2.10;99.90;;;;;;4988627;28;20034;-82
2022/11/20 08:54:09;;;;;;;14.32;9.48;;;2.90;99.90;;;;;;4989426;28;20033;-81
2022/11/20 08:56:41;;;;;;;15.55;9.68;;;2.90;99.90;;;;;;4997577;28;20389;-82
2022/11/20 08:59:12;;;;;;;14.60;10.00;;;3.00;99.90;;;;;;4996920;28;20561;-81
2022/11/20 09:01:42;;;;;;;14.25;10.10;;;2.80;99.90;;;;;;4997179;28;20034;-81
2022/11/20 09:04:11;;;;;;;14.68;10.38;;;2.40;99.90;;;;;;5015183;28;20552;-80
2022/11/20 09:06:37;;;;;;;16.88;10.23;;;1.90;99.90;;;;;;4985964;28;20088;-82
2022/11/20 09:09:07;;;;;;;14.90;10.20;;;1.60;99.90;;;;;;4997666;28;20057;-81
2022/11/20 09:11:36;;;;;;;15.88;11.20;;;1.40;99.90;;;;;;4997671;28;20029;-82
2022/11/20 09:14:30;;;;;;;13.65;10.05;;;1.10;99.90;;;;;;4997314;28;20156;-82
2022/11/20 09:16:59;;;;;;;14.18;9.23;;;1.00;99.90;;;;;;4984218;28;20026;-82
2022/11/20 09:19:25;;;;;;;14.38;9.60;;;0.80;99.90;;;;;;4997613;28;20097;-82
2022/11/20 09:21:56;;;;;;;16.42;10.68;;;0.60;99.90;;;;;;4989830;28;20054;-82
2022/11/20 09:24:27;;;;;;;15.88;10.35;;;0.50;99.90;;;;;;5009707;28;20073;-82
2022/11/20 09:26:53;;;;;;;13.77;9.15;;;0.40;99.90;;;;;;4987454;28;20142;-81
2022/11/20 09:29:22;;;;;;;15.00;9.50;;;0.40;99.90;;;;;;4993830;28;20088;-82
2022/11/20 09:31:50;;;;;;;13.88;9.65;;;0.40;99.90;;;;;;5014290;28;20517;-82
2022/11/20 09:34:20;;;;;;;14.18;9.38;;;0.50;99.90;;;;;;4996607;28;20030;-81
2022/11/20 09:36:46;;;;;;;12.85;8.52;;;0.50;99.90;;;;;;4985919;28;20042;-81
2022/11/20 09:39:15;;;;;;;11.05;6.65;;;0.50;99.90;;;;;;5005166;28;20037;-82
2022/11/20 09:42:14;;;;;;;13.18;8.50;;;0.60;99.90;;;;;;4996894;28;20115;-82
2022/11/20 09:45:14;;;;;;;13.70;8.07;;;0.60;99.90;;;;;;4986437;28;20128;-83
2022/11/20 09:48:05;;;;;;;14.60;8.50;;;0.70;99.90;;;;;;4996175;28;20154;-82
2022/11/20 09:50:43;;;;;;;12.20;7.82;;;0.80;99.90;;;;;;5012240;28;20034;-80
2022/11/20 09:53:34;;;;;;;12.50;8.10;;;0.90;99.90;;;;;;5013585;28;20116;-82
2022/11/20 09:56:03;;;;;;;13.60;8.45;;;0.90;99.90;;;;;;4982574;28;20038;-81
2022/11/20 09:58:50;;;;;;;14.07;9.32;;;0.80;99.90;;;;;;5007326;28;20042;-85
2022/11/20 10:01:29;;;;;;;12.85;8.38;;;0.90;99.90;;;;;;4996258;28;20045;-81
2022/11/20 10:04:18;;;;;;;12.68;8.00;;;1.00;99.90;;;;;;4996679;28;20057;-81
2022/11/20 10:07:07;;;;;;;15.00;9.88;;;1.10;99.90;;;;;;4993375;28;20026;-80
2022/11/20 10:09:52;;;;;;;16.33;9.93;;;1.10;99.90;;;;;;4992559;28;20385;-87
2022/11/20 10:12:57;;;;;;;17.63;11.10;;;1.10;99.90;;;;;;4994771;28;20058;-83
2022/11/20 10:15:52;;;;;;;14.27;9.32;;;1.20;99.90;;;;;;4984434;28;20042;-81
2022/11/20 10:18:35;;;;;;;15.52;10.45;;;1.20;99.90;;;;;;4996587;28;20121;-81
2022/11/20 10:21:22;;;;;;;16.52;11.85;;;1.30;99.90;;;;;;4995575;28;20037;-81
2022/11/20 10:24:02;;;;;;;14.88;10.45;;;1.20;99.90;;;;;;4986301;28;20100;-81
2022/11/20 10:26:45;;;;;;;16.95;10.88;;;1.30;99.90;;;;;;4995187;28;20449;-82
2022/11/20 10:29:21;;;;;;;17.02;10.27;;;1.40;99.90;;;;;;4995113;28;20116;-83
2022/11/20 10:31:56;;;;;;;14.35;9.43;;;1.50;99.90;;;;;;4994961;28;20061;-83
2022/11/20 10:34:37;;;;;;;14.75;9.38;;;1.60;99.90;;;;;;5013230;28;20038;-81
2022/11/20 10:37:21;;;;;;;14.25;9.07;;;1.80;99.90;;;;;;4984279;28;20466;-84
2022/11/20 10:40:05;;;;;;;14.63;9.25;;;1.90;99.90;;;;;;4993343;28;20030;-83
2022/11/20 10:42:56;;;;;;;12.80;8.57;;;2.10;99.90;;;;;;4999317;28;20354;-82
2022/11/20 10:45:25;;;;;;;13.02;8.35;;;2.20;99.90;;;;;;4988878;28;20077;-84
2022/11/20 10:47:56;;;;;;;11.63;8.43;;;2.40;99.90;;;;;;4994963;28;20056;-83
2022/11/20 10:50:44;;;;;;;13.82;9.30;;;2.50;99.90;;;;;;4989252;28;20026;-83
2022/11/20 10:53:34;;;;;;;15.60;9.98;;;2.50;99.90;;;;;;5003175;28;20498;-83
2022/11/20 10:56:20;;;;;;;15.30;9.35;;;2.40;99.90;;;;;;4992803;28;20176;-83
2022/11/20 10:59:30;;;;;;;14.77;9.57;;;2.50;99.90;;;;;;4982621;28;20064;-82
2022/11/20 11:01:57;;;;;;;16.02;10.20;;;2.40;99.90;;;;;;4994064;28;20817;-84
2022/11/20 11:04:44;;;;;;;14.93;8.73;;;2.40;99.90;;;;;;5013190;28;20086;-82
2022/11/20 11:07:28;;;;;;;15.10;9.80;;;2.40;99.90;;;;;;4985702;28;20088;-83
2022/11/20 11:09:59;;;;;;;14.38;9.50;;;2.40;99.90;;;;;;4995046;28;20038;-83
2022/11/20 11:12:36;;;;;;;14.15;9.20;;;2.40;99.90;;;;;;5012684;28;20117;-83
2022/11/20 11:15:03;;;;;;;14.13;8.98;;;2.40;99.90;;;;;;4983764;28;20034;-83
2022/11/20 11:17:32;;;;;;;15.05;9.43;;;2.50;99.90;;;;;;4995723;28;20049;-84
2022/11/20 11:20:19;;;;;;;14.98;9.70;;;2.50;99.90;;;;;;5012735;28;20056;-81
2022/11/20 11:22:49;;;;;;;14.38;9.45;;;2.50;99.90;;;;;;4992529;28;20100;-84
2022/11/20 11:25:30;;;;;;;14.82;9.35;;;2.50;99.90;;;;;;4994295;28;20042;-84
2022/11/20 11:28:02;;;;;;;15.52;9.93;;;2.70;99.90;;;;;;4995033;28;20093;-82
2022/11/20 11:30:41;;;;;;;14.18;9.48;;;2.70;99.90;;;;;;4994915;28;20041;-82
2022/11/20 11:33:11;;;;;;;14.77;9.75;;;2.90;99.90;;;;;;5008027;28;20116;-82
2022/11/20 11:35:49;;;;;;;14.27;9.52;;;3.00;99.90;;;;;;4990073;28;20038;-82
2022/11/20 11:38:40;;;;;;;15.70;9.43;;;3.00;99.90;;;;;;4992237;28;20086;-82
2022/11/20 11:41:11;;;;;;;14.73;8.98;;;3.00;99.90;;;;;;4984678;28;20132;-84
2022/11/20 11:46:51;;;;;;;16.10;10.32;;;3.00;99.90;;;;;;5006482;28;20036;-83
2022/11/20 11:49:24;;;;;;;12.23;8.27;;;2.90;99.90;;;;;;4994605;28;20037;-83
2022/11/20 11:52:25;;;;;;;12.75;8.52;;;2.80;99.90;;;;;;4982211;28;20129;-84
2022/11/20 11:55:00;;;;;;;16.10;10.43;;;2.80;99.90;;;;;;4986944;28;20093;-83
2022/11/20 11:57:46;;;;;;;14.38;9.43;;;2.70;99.90;;;;;;4988517;28;20031;-82
2022/11/20 12:00:20;;;;;;;15.23;9.15;;;2.60;99.90;;;;;;4990479;28;20069;-82
2022/11/20 12:02:49;;;;;;;15.20;10.15;;;2.60;99.90;;;;;;4993945;28;20038;-82
2022/11/20 12:05:52;;;;;;;13.35;8.57;;;2.60;99.90;;;;;;5014572;28;20038;-82
2022/11/20 12:08:46;;;;;;;13.93;9.27;;;2.50;99.90;;;;;;5007353;28;20038;-82
2022/11/20 12:11:28;;;;;;;15.50;8.77;;;2.60;99.90;;;;;;5010820;28;20046;-83
2022/11/20 12:14:34;;;;;;;16.77;10.52;;;2.60;99.90;;;;;;4996298;28;20038;-83
2022/11/20 12:17:17;;;;;;;17.15;11.25;;;2.50;99.90;;;;;;4999000;28;20129;-82
2022/11/20 12:20:00;;;;;;;17.42;11.40;;;2.50;99.90;;;;;;4998624;28;20029;-82
2022/11/20 12:22:51;;;;;;;16.65;11.13;;;2.50;99.90;;;;;;4987559;28;20077;-82
2022/11/20 12:25:41;;;;;;;16.42;11.13;;;2.60;99.90;;;;;;4982106;28;20030;-82
2022/11/20 12:28:44;;;;;;;16.67;11.05;;;2.60;99.90;;;;;;5010585;28;20046;-82
2022/11/20 12:31:38;;;;;;;15.88;10.35;;;2.60;99.90;;;;;;4996278;28;20042;-83
2022/11/20 12:34:13;;;;;;;14.07;9.65;;;2.70;99.90;;;;;;4997760;28;20037;-85
2022/11/20 12:37:19;;;;;;;14.73;10.23;;;2.70;99.90;;;;;;4994846;28;20038;-82
2022/11/20 12:40:17;;;;;;;15.90;10.65;;;2.80;99.90;;;;;;4988031;28;20056;-83
2022/11/20 12:46:52;;;;;;;15.38;10.68;;;2.80;99.90;;;;;;5007058;28;20121;-84
2022/11/20 12:49:20;;;;;;;16.77;10.80;;;2.80;99.90;;;;;;4991446;28;20038;-84
2022/11/20 12:52:05;;;;;;;14.32;10.07;;;2.90;99.90;;;;;;5010131;28;20512;-83
2022/11/20 12:55:15;;;;;;;16.77;11.60;;;2.90;99.90;;;;;;4994715;28;20034;-85
2022/11/20 12:57:55;;;;;;;17.13;11.88;;;2.90;99.90;;;;;;4986927;28;20393;-84
2022/11/20 13:00:45;;;;;;;15.82;11.20;;;2.80;99.90;;;;;;4993154;28;20201;-83
2022/11/20 13:03:35;;;;;;;18.38;12.98;;;2.80;99.90;;;;;;5012341;28;20181;-85
2022/11/20 13:06:57;;;;;;;19.48;13.55;;;2.70;99.90;;;;;;5012140;28;20474;-85
2022/11/20 13:09:29;;;;;;;21.42;14.63;;;2.60;99.90;;;;;;4906222;29;20071;-86
2022/11/20 13:12:45;;;;;;;20.67;14.43;;;2.50;99.90;;;;;;4916521;29;20514;-84
2022/11/20 13:15:49;;;;;;;;;;;;;;;;;;;;;
2022/11/20 13:19:11;;;;;;;;;;;;;;;;;;;;;
2022/11/20 13:22:07;;;;;;;15.70;9.90;;;2.50;99.90;;;;;;4924335;29;20047;-84
2022/11/20 13:24:37;;;;;;;15.02;10.30;;;2.50;99.90;;;;;;4896389;29;20131;-86
2022/11/20 13:27:49;;;;;;;15.82;10.05;;;2.50;99.90;;;;;;4894555;29;20119;-88